createdAt,value
2023-02-23T00:00:21.184Z,25.90
2023-02-23T00:01:28.617Z,31.85
2023-02-23T00:02:30.669Z,34.13
2023-02-23T00:03:32.399Z,31.55
2023-02-23T00:04:35.347Z,26.88
2023-02-23T00:05:37.356Z,38.92
2023-02-23T00:06:39.048Z,31.30
2023-02-23T00:07:43.883Z,25.02
2023-02-23T00:08:47.893Z,32.47
2023-02-23T00:09:51.080Z,33.97
2023-02-23T00:10:58.469Z,30.02
2023-02-23T00:12:00.386Z,31.42
2023-02-23T00:13:02.478Z,30.38
2023-02-23T00:14:04.338Z,32.72
2023-02-23T00:15:07.875Z,31.27
2023-02-23T00:16:15.116Z,27.92
2023-02-23T00:17:17.716Z,35.15
2023-02-23T00:18:20.992Z,32.45
2023-02-23T00:19:25.378Z,29.00
2023-02-23T00:20:28.194Z,33.97
2023-02-23T00:21:35.229Z,22.65
2023-02-23T00:22:41.103Z,33.03
2023-02-23T00:23:54.018Z,25.50
2023-02-23T00:24:57.501Z,30.55
2023-02-23T00:25:59.852Z,24.13
2023-02-23T00:27:06.442Z,27.30
2023-02-23T00:28:08.130Z,38.72
2023-02-23T00:29:17.609Z,29.17
2023-02-23T00:30:20.393Z,27.42
2023-02-23T00:31:27.377Z,24.60
2023-02-23T00:32:29.503Z,34.15
2023-02-23T00:33:31.575Z,39.03
2023-02-23T00:34:33.452Z,27.48
2023-02-23T00:35:36.797Z,26.33
2023-02-23T00:36:41.158Z,39.28
2023-02-23T00:37:45.923Z,29.77
2023-02-23T00:38:48.235Z,24.65
2023-02-23T00:39:50.583Z,26.20
2023-02-23T00:40:52.413Z,26.13
2023-02-23T00:41:55.495Z,31.65
2023-02-23T00:43:00.835Z,35.80
2023-02-23T00:44:02.466Z,32.45
2023-02-23T00:45:08.743Z,27.98
2023-02-23T00:46:10.580Z,30.70
2023-02-23T00:47:12.605Z,27.90
2023-02-23T00:48:14.486Z,34.33
2023-02-23T00:49:16.635Z,33.55
2023-02-23T00:50:18.890Z,34.25
2023-02-23T00:51:20.916Z,28.58
2023-02-23T00:52:22.582Z,36.65
2023-02-23T00:53:24.211Z,34.72
2023-02-23T00:54:26.177Z,28.17
2023-02-23T00:55:27.799Z,26.90
2023-02-23T00:56:29.551Z,27.88
2023-02-23T00:57:31.175Z,28.70
2023-02-23T00:58:33.028Z,31.05
2023-02-23T00:59:34.733Z,28.92
2023-02-23T01:00:42.170Z,26.88
2023-02-23T01:01:44.464Z,34.78
2023-02-23T01:02:47.682Z,34.78
2023-02-23T01:03:49.513Z,38.92
2023-02-23T01:04:51.148Z,34.95
2023-02-23T01:05:53.236Z,26.30
2023-02-23T01:06:54.900Z,30.15
2023-02-23T01:07:56.824Z,29.10
2023-02-23T01:08:59.187Z,30.75
2023-02-23T01:10:00.873Z,28.55
2023-02-23T01:11:15.757Z,30.58
2023-02-23T01:12:17.582Z,33.95
2023-02-23T01:13:20.716Z,27.05
2023-02-23T01:14:23.686Z,28.85
2023-02-23T01:15:25.336Z,30.92
2023-02-23T01:16:30.468Z,31.70
2023-02-23T01:17:32.111Z,32.08
2023-02-23T01:18:34.925Z,32.03
2023-02-23T01:19:36.594Z,32.85
2023-02-23T01:20:42.454Z,29.20
2023-02-23T01:21:44.812Z,32.83
2023-02-23T01:22:49.981Z,30.27
2023-02-23T01:23:53.499Z,34.13
2023-02-23T01:24:55.430Z,30.00
2023-02-23T01:25:57.264Z,34.92
2023-02-23T01:26:58.993Z,39.63
2023-02-23T01:28:01.680Z,35.47
2023-02-23T01:29:08.812Z,30.02
2023-02-23T01:30:14.793Z,33.45
2023-02-23T01:31:17.443Z,27.95
2023-02-23T01:32:19.396Z,30.02
2023-02-23T01:33:21.089Z,32.08
2023-02-23T01:34:23.995Z,28.88
2023-02-23T01:35:25.619Z,31.88
2023-02-23T01:36:31.279Z,33.75
2023-02-23T01:37:40.453Z,34.40
2023-02-23T01:38:42.151Z,27.55
2023-02-23T01:39:43.896Z,40.80
2023-02-23T01:40:47.341Z,24.23
2023-02-23T01:41:52.124Z,30.10
2023-02-23T01:42:54.248Z,32.13
2023-02-23T01:44:00.590Z,28.40
2023-02-23T01:45:22.521Z,41.17
2023-02-23T01:46:24.670Z,33.78
2023-02-23T01:47:27.275Z,33.88
2023-02-23T01:48:34.254Z,33.90
2023-02-23T01:49:35.946Z,29.42
2023-02-23T01:50:52.662Z,31.73
2023-02-23T01:52:03.536Z,35.72
2023-02-23T01:53:05.797Z,29.90
2023-02-23T01:54:14.402Z,30.30
2023-02-23T01:55:23.620Z,32.60
2023-02-23T01:56:31.839Z,30.27
2023-02-23T01:57:33.852Z,30.77
2023-02-23T01:58:35.566Z,31.23
2023-02-23T01:59:41.444Z,29.85
2023-02-23T02:00:48.976Z,52.13
2023-02-23T02:01:50.681Z,31.10
2023-02-23T02:02:53.091Z,37.88
2023-02-23T02:04:06.624Z,35.35
2023-02-23T02:05:13.820Z,30.02
2023-02-23T02:06:20.035Z,36.35
2023-02-23T02:07:24.967Z,25.27
2023-02-23T02:08:30.288Z,30.67
2023-02-23T02:09:38.100Z,38.05
2023-02-23T02:10:40.082Z,24.50
2023-02-23T02:11:44.787Z,33.88
2023-02-23T02:12:52.437Z,29.08
2023-02-23T02:14:02.666Z,30.30
2023-02-23T02:15:07.701Z,27.63
2023-02-23T02:16:29.213Z,34.80
2023-02-23T02:17:37.742Z,33.88
2023-02-23T02:19:12.318Z,32.80
2023-02-23T02:20:44.830Z,30.80
2023-02-23T02:22:11.081Z,35.92
2023-02-23T02:23:22.504Z,38.85
2023-02-23T02:24:55.688Z,32.17
2023-02-23T02:26:24.338Z,31.55
2023-02-23T02:27:43.509Z,36.17
2023-02-23T02:29:09.279Z,30.17
2023-02-23T02:30:34.414Z,40.72
2023-02-23T02:32:11.234Z,40.88
2023-02-23T02:33:19.103Z,26.70
2023-02-23T02:34:49.084Z,36.67
2023-02-23T02:35:53.459Z,25.25
2023-02-23T02:37:07.112Z,35.30
2023-02-23T02:38:33.483Z,28.90
2023-02-23T02:39:53.743Z,39.92
2023-02-23T02:41:36.037Z,31.08
2023-02-23T02:43:22.177Z,31.75
2023-02-23T02:44:23.966Z,36.50
2023-02-23T02:45:39.990Z,35.75
2023-02-23T02:46:48.145Z,34.58
2023-02-23T02:48:01.621Z,26.90
2023-02-23T02:49:20.148Z,24.75
2023-02-23T02:50:31.522Z,34.22
2023-02-23T02:51:42.632Z,35.70
2023-02-23T02:53:05.743Z,34.28
2023-02-23T02:54:21.324Z,28.35
2023-02-23T02:55:27.858Z,36.55
2023-02-23T02:56:31.075Z,35.92
2023-02-23T02:57:33.703Z,32.33
2023-02-23T02:58:36.854Z,35.03
2023-02-23T03:00:06.054Z,25.88
2023-02-23T03:01:33.878Z,31.50
2023-02-23T03:02:57.268Z,29.05
2023-02-23T03:04:21.452Z,35.35
2023-02-23T03:05:53.450Z,28.65
2023-02-23T03:07:27.896Z,34.42
2023-02-23T03:09:18.623Z,27.83
2023-02-23T03:11:13.950Z,31.88
2023-02-23T03:12:56.894Z,29.58
2023-02-23T03:14:22.129Z,36.50
2023-02-23T03:16:04.073Z,28.90
2023-02-23T03:17:30.869Z,32.50
2023-02-23T03:19:08.029Z,40.55
2023-02-23T03:20:46.826Z,28.52
2023-02-23T03:22:10.189Z,26.20
2023-02-23T03:23:54.418Z,26.65
2023-02-23T03:25:24.879Z,28.30
2023-02-23T03:26:56.285Z,28.55
2023-02-23T03:28:24.991Z,25.85
2023-02-23T03:30:27.715Z,24.98
2023-02-23T03:32:02.885Z,25.52
2023-02-23T03:33:32.632Z,24.73
2023-02-23T03:35:03.918Z,25.95
2023-02-23T03:36:29.879Z,27.85
2023-02-23T03:37:57.476Z,23.45
2023-02-23T03:39:39.180Z,32.22
2023-02-23T03:41:02.145Z,26.13
2023-02-23T03:42:29.595Z,25.92
2023-02-23T03:43:56.293Z,23.35
2023-02-23T03:45:18.073Z,27.90
2023-02-23T03:46:40.834Z,26.08
2023-02-23T03:48:03.749Z,32.50
2023-02-23T03:49:28.575Z,35.25
2023-02-23T03:51:04.136Z,27.58
2023-02-23T03:52:36.840Z,34.92
2023-02-23T03:54:13.684Z,27.75
2023-02-23T03:55:37.724Z,27.27
2023-02-23T03:57:03.799Z,32.40
2023-02-23T03:58:30.558Z,31.08
2023-02-23T03:59:56.757Z,25.15
2023-02-23T04:01:21.705Z,23.38
2023-02-23T04:02:43.981Z,24.55
2023-02-23T04:04:07.106Z,25.83
2023-02-23T04:05:39.043Z,28.98
2023-02-23T04:07:06.850Z,25.17
2023-02-23T04:08:32.893Z,24.63
2023-02-23T04:09:53.453Z,29.10
2023-02-23T04:11:21.663Z,32.67
2023-02-23T04:12:58.806Z,30.42
2023-02-23T04:14:04.195Z,27.58
2023-02-23T04:15:33.184Z,20.80
2023-02-23T04:16:38.118Z,26.80
2023-02-23T04:17:40.292Z,23.30
2023-02-23T04:18:42.917Z,32.83
2023-02-23T04:19:52.314Z,27.70
2023-02-23T04:20:59.922Z,44.28
2023-02-23T04:22:03.108Z,30.83
2023-02-23T04:23:04.996Z,26.42
2023-02-23T04:24:06.743Z,27.73
2023-02-23T04:25:09.188Z,27.08
2023-02-23T04:26:10.829Z,27.73
2023-02-23T04:27:13.576Z,26.83
2023-02-23T04:28:16.287Z,30.58
2023-02-23T04:29:17.960Z,29.77
2023-02-23T04:30:24.730Z,27.50
2023-02-23T04:31:27.110Z,25.83
2023-02-23T04:32:29.934Z,33.33
2023-02-23T04:33:31.700Z,29.95
2023-02-23T04:34:35.266Z,25.70
2023-02-23T04:35:37.298Z,28.70
2023-02-23T04:36:39.248Z,23.52
2023-02-23T04:37:40.916Z,33.42
2023-02-23T04:38:42.552Z,22.45
2023-02-23T04:39:48.507Z,25.75
2023-02-23T04:40:51.141Z,27.10
2023-02-23T04:41:52.848Z,26.25
2023-02-23T04:42:55.744Z,26.25
2023-02-23T04:43:57.589Z,27.02
2023-02-23T04:44:59.349Z,33.47
2023-02-23T04:46:01.537Z,27.20
2023-02-23T04:47:03.940Z,28.95
2023-02-23T04:48:05.903Z,28.77
2023-02-23T04:49:07.740Z,24.80
2023-02-23T04:50:10.327Z,24.85
2023-02-23T04:51:12.005Z,30.10
2023-02-23T04:52:13.760Z,30.80
2023-02-23T04:53:15.519Z,25.92
2023-02-23T04:54:17.459Z,26.55
2023-02-23T04:55:24.688Z,33.25
2023-02-23T04:56:26.507Z,35.92
2023-02-23T04:57:29.097Z,31.35
2023-02-23T04:58:30.813Z,28.33
2023-02-23T04:59:33.275Z,27.60
2023-02-23T05:00:35.016Z,31.95
2023-02-23T05:01:37.475Z,29.77
2023-02-23T05:02:39.643Z,27.02
2023-02-23T05:03:41.381Z,28.30
2023-02-23T05:04:43.106Z,30.60
2023-02-23T05:05:45.420Z,24.90
2023-02-23T05:06:47.470Z,28.25
2023-02-23T05:07:49.498Z,27.30
2023-02-23T05:08:51.302Z,31.15
2023-02-23T05:09:53.072Z,30.50
2023-02-23T05:10:54.826Z,32.08
2023-02-23T05:11:56.609Z,42.83
2023-02-23T05:12:58.434Z,25.05
2023-02-23T05:14:00.401Z,36.75
2023-02-23T05:15:02.137Z,32.42
2023-02-23T05:16:04.750Z,30.17
2023-02-23T05:17:08.615Z,28.70
2023-02-23T05:18:10.623Z,26.55
2023-02-23T05:19:12.326Z,31.85
2023-02-23T05:20:14.990Z,30.80
2023-02-23T05:21:17.303Z,22.70
2023-02-23T05:22:19.245Z,26.88
2023-02-23T05:23:22.206Z,32.83
2023-02-23T05:24:24.194Z,29.60
2023-02-23T05:25:26.105Z,23.95
2023-02-23T05:26:28.333Z,31.85
2023-02-23T05:27:30.374Z,31.55
2023-02-23T05:28:33.863Z,24.60
2023-02-23T05:29:36.002Z,32.60
2023-02-23T05:30:38.115Z,31.20
2023-02-23T05:31:39.907Z,32.75
2023-02-23T05:32:44.509Z,25.67
2023-02-23T05:33:46.711Z,29.58
2023-02-23T05:34:48.415Z,30.55
2023-02-23T05:35:50.627Z,31.77
2023-02-23T05:36:52.546Z,26.33
2023-02-23T05:37:54.557Z,27.27
2023-02-23T05:38:56.218Z,34.85
2023-02-23T05:39:57.949Z,30.75
2023-02-23T05:40:59.872Z,25.63
2023-02-23T05:42:01.616Z,32.30
2023-02-23T05:43:03.724Z,32.83
2023-02-23T05:44:05.859Z,25.17
2023-02-23T05:45:08.642Z,26.02
2023-02-23T05:46:14.721Z,29.50
2023-02-23T05:47:16.673Z,36.33
2023-02-23T05:48:18.585Z,31.60
2023-02-23T05:49:20.494Z,34.20
2023-02-23T05:50:22.923Z,29.25
2023-02-23T05:51:26.856Z,31.30
2023-02-23T05:52:28.731Z,24.17
2023-02-23T05:53:31.246Z,30.88
2023-02-23T05:54:33.027Z,29.33
2023-02-23T05:55:36.077Z,32.00
2023-02-23T05:56:38.788Z,30.13
2023-02-23T05:57:41.596Z,29.35
2023-02-23T05:58:43.430Z,27.58
2023-02-23T05:59:45.274Z,27.55
2023-02-23T06:00:46.970Z,23.83
2023-02-23T06:01:48.990Z,32.35
2023-02-23T06:02:54.298Z,27.13
2023-02-23T06:03:57.574Z,31.08
2023-02-23T06:04:59.552Z,28.70
2023-02-23T06:06:01.307Z,25.20
2023-02-23T06:07:03.357Z,31.30
2023-02-23T06:08:05.840Z,32.72
2023-02-23T06:09:07.923Z,30.75
2023-02-23T06:10:11.671Z,28.10
2023-02-23T06:11:13.676Z,34.33
2023-02-23T06:12:15.669Z,26.67
2023-02-23T06:13:17.987Z,30.90
2023-02-23T06:14:19.736Z,26.83
2023-02-23T06:15:22.995Z,31.08
2023-02-23T06:16:24.908Z,29.27
2023-02-23T06:17:27.598Z,28.83
2023-02-23T06:18:29.988Z,29.80
2023-02-23T06:19:33.404Z,35.28
2023-02-23T06:20:35.918Z,30.92
2023-02-23T06:21:38.000Z,27.42
2023-02-23T06:22:40.139Z,34.63
2023-02-23T06:23:41.978Z,29.45
2023-02-23T06:24:44.724Z,30.60
2023-02-23T06:25:47.650Z,26.80
2023-02-23T06:26:49.450Z,24.40
2023-02-23T06:27:51.390Z,26.80
2023-02-23T06:28:53.388Z,40.15
2023-02-23T06:29:55.074Z,31.27
2023-02-23T06:30:57.481Z,28.52
2023-02-23T06:32:01.081Z,32.38
2023-02-23T06:33:03.194Z,30.42
2023-02-23T06:34:05.415Z,24.25
2023-02-23T06:35:10.246Z,25.73
2023-02-23T06:36:11.901Z,28.73
2023-02-23T06:37:13.636Z,30.90
2023-02-23T06:38:15.660Z,27.20
2023-02-23T06:39:19.395Z,31.90
2023-02-23T06:40:22.307Z,30.23
2023-02-23T06:41:25.355Z,34.60
2023-02-23T06:42:27.153Z,27.52
2023-02-23T06:43:30.297Z,26.00
2023-02-23T06:44:35.382Z,29.05
2023-02-23T06:45:37.505Z,31.85
2023-02-23T06:46:39.715Z,27.42
2023-02-23T06:47:41.736Z,33.33
2023-02-23T06:48:43.380Z,36.83
2023-02-23T06:49:45.222Z,37.28
2023-02-23T06:50:47.193Z,31.33
2023-02-23T06:51:48.778Z,30.88
2023-02-23T06:52:50.816Z,30.13
2023-02-23T06:53:53.633Z,32.17
2023-02-23T06:54:55.323Z,28.02
2023-02-23T06:55:57.298Z,35.88
2023-02-23T06:56:59.027Z,30.52
2023-02-23T06:58:00.724Z,28.80
2023-02-23T06:59:02.387Z,32.70
2023-02-23T07:00:04.961Z,25.20
2023-02-23T07:01:08.003Z,32.47
2023-02-23T07:02:12.687Z,36.40
2023-02-23T07:03:14.634Z,35.47
2023-02-23T07:04:16.952Z,31.08
2023-02-23T07:05:18.898Z,42.70
2023-02-23T07:06:20.810Z,28.35
2023-02-23T07:07:22.909Z,30.50
2023-02-23T07:08:24.925Z,26.13
2023-02-23T07:09:30.580Z,30.40
2023-02-23T07:10:33.454Z,24.60
2023-02-23T07:11:35.552Z,31.67
2023-02-23T07:12:37.238Z,28.42
2023-02-23T07:13:39.554Z,32.00
2023-02-23T07:14:41.561Z,31.80
2023-02-23T07:15:43.806Z,32.25
2023-02-23T07:16:45.769Z,27.73
2023-02-23T07:17:49.001Z,27.90
2023-02-23T07:18:51.071Z,39.03
2023-02-23T07:19:52.778Z,30.17
2023-02-23T07:20:55.311Z,27.88
2023-02-23T07:21:57.075Z,35.40
2023-02-23T07:23:00.681Z,29.17
2023-02-23T07:24:05.025Z,30.92
2023-02-23T07:25:07.561Z,29.83
2023-02-23T07:26:09.772Z,25.58
2023-02-23T07:27:11.488Z,27.02
2023-02-23T07:28:14.297Z,31.23
2023-02-23T07:29:16.390Z,31.83
2023-02-23T07:30:20.290Z,34.03
2023-02-23T07:31:22.835Z,29.80
2023-02-23T07:32:24.949Z,31.40
2023-02-23T07:33:27.208Z,28.25
2023-02-23T07:34:28.890Z,30.05
2023-02-23T07:35:30.578Z,31.23
2023-02-23T07:36:32.707Z,28.88
2023-02-23T07:37:35.983Z,37.72
2023-02-23T07:38:38.059Z,32.42
2023-02-23T07:39:39.736Z,33.45
2023-02-23T07:40:41.699Z,39.65
2023-02-23T07:41:43.708Z,30.90
2023-02-23T07:42:45.597Z,27.02
2023-02-23T07:43:48.996Z,38.50
2023-02-23T07:44:51.246Z,37.33
2023-02-23T07:45:53.874Z,29.00
2023-02-23T07:46:55.824Z,28.98
2023-02-23T07:47:57.828Z,38.05
2023-02-23T07:48:59.534Z,26.80
2023-02-23T07:50:03.778Z,32.17
2023-02-23T07:51:12.224Z,33.90
2023-02-23T07:52:19.730Z,41.80
2023-02-23T07:53:21.621Z,36.65
2023-02-23T07:54:25.623Z,36.50
2023-02-23T07:55:27.812Z,30.15
2023-02-23T07:56:30.116Z,35.75
2023-02-23T07:57:32.063Z,39.95
2023-02-23T07:58:35.195Z,40.55
2023-02-23T07:59:39.655Z,36.95
2023-02-23T08:00:41.578Z,28.38
2023-02-23T08:01:44.108Z,36.38
2023-02-23T08:02:46.028Z,39.22
2023-02-23T08:03:50.950Z,26.52
2023-02-23T08:04:54.486Z,26.85
2023-02-23T08:05:56.541Z,37.88
2023-02-23T08:06:58.883Z,29.38
2023-02-23T08:08:00.947Z,36.00
2023-02-23T08:09:04.319Z,28.55
2023-02-23T08:10:06.790Z,35.33
2023-02-23T08:11:09.328Z,37.22
2023-02-23T08:12:11.646Z,31.08
2023-02-23T08:13:13.586Z,34.53
2023-02-23T08:14:15.250Z,31.48
2023-02-23T08:15:20.876Z,27.50
2023-02-23T08:16:22.900Z,33.95
2023-02-23T08:17:26.967Z,25.50
2023-02-23T08:18:29.020Z,30.23
2023-02-23T08:19:30.924Z,30.15
2023-02-23T08:20:33.561Z,38.03
2023-02-23T08:21:35.310Z,43.63
2023-02-23T08:22:48.984Z,38.50
2023-02-23T08:23:51.728Z,36.17
2023-02-23T08:24:53.508Z,32.17
2023-02-23T08:25:55.332Z,31.83
2023-02-23T08:26:58.348Z,36.85
2023-02-23T08:28:04.858Z,26.92
2023-02-23T08:29:06.955Z,29.33
2023-02-23T08:30:10.111Z,28.83
2023-02-23T08:31:14.179Z,28.23
2023-02-23T08:32:16.230Z,28.58
2023-02-23T08:33:18.242Z,39.63
2023-02-23T08:34:20.833Z,35.17
2023-02-23T08:35:23.186Z,37.35
2023-02-23T08:36:24.976Z,26.83
2023-02-23T08:37:26.818Z,28.98
2023-02-23T08:38:29.429Z,31.27
2023-02-23T08:39:32.806Z,31.58
2023-02-23T08:40:34.665Z,31.50
2023-02-23T08:41:36.745Z,32.67
2023-02-23T08:42:39.725Z,30.00
2023-02-23T08:43:41.644Z,33.15
2023-02-23T08:44:43.503Z,40.63
2023-02-23T08:45:45.612Z,27.38
2023-02-23T08:46:47.658Z,32.13
2023-02-23T08:47:49.599Z,22.40
2023-02-23T08:48:52.713Z,24.83
2023-02-23T08:49:54.442Z,30.58
2023-02-23T08:50:59.452Z,22.27
2023-02-23T08:52:01.243Z,30.58
2023-02-23T08:53:04.401Z,27.92
2023-02-23T08:54:12.947Z,28.25
2023-02-23T08:55:18.261Z,33.85
2023-02-23T08:56:23.163Z,36.78
2023-02-23T08:57:26.450Z,28.23
2023-02-23T08:58:30.926Z,29.65
2023-02-23T08:59:35.949Z,22.48
2023-02-23T09:00:39.677Z,27.08
2023-02-23T09:01:43.341Z,27.58
2023-02-23T09:02:48.485Z,25.02
2023-02-23T09:03:50.680Z,26.10
2023-02-23T09:04:54.361Z,23.40
2023-02-23T09:06:00.960Z,26.75
2023-02-23T09:07:05.577Z,25.88
2023-02-23T09:08:09.322Z,23.25
2023-02-23T09:09:11.433Z,27.30
2023-02-23T09:10:22.452Z,29.77
2023-02-23T09:11:25.507Z,26.60
2023-02-23T09:12:27.621Z,27.58
2023-02-23T09:13:29.759Z,25.05
2023-02-23T09:14:32.258Z,24.67
2023-02-23T09:15:35.719Z,25.35
2023-02-23T09:16:37.882Z,27.85
2023-02-23T09:17:41.604Z,24.42
2023-02-23T09:18:43.511Z,25.50
2023-02-23T09:19:45.680Z,28.58
2023-02-23T09:20:47.596Z,23.77
2023-02-23T09:21:49.529Z,37.70
2023-02-23T09:22:51.299Z,23.38
2023-02-23T09:23:56.282Z,24.75
2023-02-23T09:24:58.159Z,20.63
2023-02-23T09:26:06.767Z,23.60
2023-02-23T09:27:08.776Z,29.85
2023-02-23T09:28:16.525Z,27.35
2023-02-23T09:29:18.243Z,27.60
2023-02-23T09:30:21.689Z,28.88
2023-02-23T09:31:25.203Z,24.65
2023-02-23T09:32:27.334Z,30.63
2023-02-23T09:33:29.537Z,25.52
2023-02-23T09:34:36.320Z,27.17
2023-02-23T09:35:40.953Z,24.15
2023-02-23T09:36:43.145Z,27.77
2023-02-23T09:37:49.212Z,25.88
2023-02-23T09:38:55.327Z,23.65
2023-02-23T09:39:58.086Z,21.67
2023-02-23T09:41:00.231Z,22.17
2023-02-23T09:42:20.001Z,24.23
2023-02-23T09:43:39.572Z,24.38
2023-02-23T09:44:41.147Z,19.48
2023-02-23T09:45:49.265Z,22.85
2023-02-23T09:47:00.168Z,26.30
2023-02-23T09:48:07.477Z,23.25
2023-02-23T09:49:17.743Z,18.35
2023-02-23T09:50:27.384Z,24.45
2023-02-23T09:51:33.182Z,24.15
2023-02-23T09:52:45.008Z,22.98
2023-02-23T09:53:54.709Z,29.58
2023-02-23T09:54:58.431Z,22.13
2023-02-23T09:56:00.871Z,25.73
2023-02-23T09:57:06.892Z,27.95
2023-02-23T09:58:21.929Z,24.02
2023-02-23T09:59:25.376Z,24.30
2023-02-23T10:00:31.196Z,22.58
2023-02-23T10:01:48.266Z,25.83
2023-02-23T10:02:52.931Z,24.45
2023-02-23T10:04:22.980Z,22.90
2023-02-23T10:05:32.569Z,22.63
2023-02-23T10:06:35.274Z,19.60
2023-02-23T10:08:08.057Z,24.05
2023-02-23T10:09:29.689Z,26.40
2023-02-23T10:10:56.201Z,26.27
2023-02-23T10:12:02.455Z,18.25
2023-02-23T10:13:28.724Z,21.10
2023-02-23T10:15:06.811Z,20.88
2023-02-23T10:16:17.647Z,20.48
2023-02-23T10:17:47.688Z,25.33
2023-02-23T10:19:06.866Z,21.88
2023-02-23T10:20:30.423Z,22.20
2023-02-23T10:22:02.495Z,27.20
2023-02-23T10:23:09.824Z,24.23
2023-02-23T10:24:25.379Z,26.00
2023-02-23T10:25:32.334Z,18.88
2023-02-23T10:26:44.275Z,27.92
2023-02-23T10:27:49.077Z,23.88
2023-02-23T10:28:56.288Z,23.55
2023-02-23T10:30:02.768Z,20.52
2023-02-23T10:31:29.046Z,18.75
2023-02-23T10:32:41.908Z,19.92
2023-02-23T10:33:44.569Z,21.02
2023-02-23T10:34:49.726Z,17.05
2023-02-23T10:36:12.619Z,20.15
2023-02-23T10:37:17.314Z,20.52
2023-02-23T10:38:20.145Z,19.50
2023-02-23T10:39:21.909Z,19.25
2023-02-23T10:40:28.864Z,27.35
2023-02-23T10:41:32.025Z,17.52
2023-02-23T10:42:34.581Z,22.40
2023-02-23T10:43:36.801Z,29.17
2023-02-23T10:44:38.781Z,18.00
2023-02-23T10:45:48.357Z,18.60
2023-02-23T10:47:08.228Z,22.20
2023-02-23T10:48:18.697Z,19.60
2023-02-23T10:49:23.232Z,20.63
2023-02-23T10:50:29.280Z,23.40
2023-02-23T10:51:36.712Z,20.98
2023-02-23T10:52:48.278Z,16.25
2023-02-23T10:53:50.122Z,18.38
2023-02-23T10:54:53.929Z,28.38
2023-02-23T10:56:15.597Z,18.75
2023-02-23T10:57:27.921Z,17.73
2023-02-23T10:58:30.475Z,14.93
2023-02-23T10:59:33.153Z,15.80
2023-02-23T11:00:39.209Z,22.08
2023-02-23T11:02:00.938Z,15.88
2023-02-23T11:03:24.416Z,16.65
2023-02-23T11:04:29.482Z,21.80
2023-02-23T11:05:43.337Z,18.42
2023-02-23T11:06:45.240Z,20.65
2023-02-23T11:07:47.139Z,23.60
2023-02-23T11:08:49.422Z,17.27
2023-02-23T11:09:54.834Z,23.13
2023-02-23T11:10:56.509Z,14.45
2023-02-23T11:12:25.666Z,18.92
2023-02-23T11:13:33.585Z,16.80
2023-02-23T11:14:36.498Z,19.08
2023-02-23T11:15:50.826Z,19.70
2023-02-23T11:16:52.871Z,17.30
2023-02-23T11:18:04.101Z,21.45
2023-02-23T11:19:20.931Z,18.23
2023-02-23T11:20:33.398Z,17.67
2023-02-23T11:21:40.299Z,19.88
2023-02-23T11:22:42.874Z,17.33
2023-02-23T11:23:44.931Z,19.05
2023-02-23T11:24:46.653Z,17.17
2023-02-23T11:25:51.337Z,16.83
2023-02-23T11:27:03.940Z,16.23
2023-02-23T11:28:06.072Z,14.57
2023-02-23T11:29:22.390Z,19.88
2023-02-23T11:30:31.411Z,18.08
2023-02-23T11:31:38.489Z,19.10
2023-02-23T11:32:43.464Z,19.92
2023-02-23T11:33:47.440Z,15.95
2023-02-23T11:35:21.127Z,19.98
2023-02-23T11:36:22.880Z,25.55
2023-02-23T11:37:25.063Z,24.27
2023-02-23T11:38:30.455Z,16.42
2023-02-23T11:39:33.274Z,23.98
2023-02-23T11:40:36.042Z,15.00
2023-02-23T11:41:40.502Z,18.13
2023-02-23T11:43:14.959Z,20.10
2023-02-23T11:44:22.427Z,15.35
2023-02-23T11:45:34.573Z,18.13
2023-02-23T11:46:39.175Z,17.55
2023-02-23T11:47:45.063Z,21.45
2023-02-23T11:49:09.938Z,20.63
2023-02-23T11:50:28.857Z,19.20
2023-02-23T11:51:46.308Z,20.48
2023-02-23T11:52:54.315Z,14.50
2023-02-23T11:53:56.858Z,18.15
2023-02-23T11:55:02.668Z,17.27
2023-02-23T11:56:11.306Z,23.05
2023-02-23T11:57:22.502Z,15.10
2023-02-23T11:58:36.053Z,16.13
2023-02-23T11:59:41.675Z,16.20
2023-02-23T12:00:44.099Z,14.02
2023-02-23T12:01:49.987Z,17.02
2023-02-23T12:03:03.470Z,16.30
2023-02-23T12:04:05.968Z,15.55
2023-02-23T12:05:28.196Z,19.92
2023-02-23T12:06:33.211Z,16.27
2023-02-23T12:07:55.656Z,13.45
2023-02-23T12:09:05.500Z,13.10
2023-02-23T12:10:37.560Z,14.70
2023-02-23T12:11:48.421Z,12.50
2023-02-23T12:13:34.804Z,15.82
2023-02-23T12:14:57.248Z,15.57
2023-02-23T12:16:01.835Z,13.65
2023-02-23T12:17:18.471Z,18.90
2023-02-23T12:18:45.404Z,16.15
2023-02-23T12:20:16.610Z,23.48
2023-02-23T12:21:43.423Z,22.90
2023-02-23T12:22:59.757Z,15.10
2023-02-23T12:24:11.052Z,16.30
2023-02-23T12:25:35.152Z,27.38
2023-02-23T12:26:46.402Z,16.10
2023-02-23T12:28:19.508Z,14.98
2023-02-23T12:29:31.785Z,17.15
2023-02-23T12:31:02.827Z,19.38
2023-02-23T12:32:19.565Z,15.32
2023-02-23T12:33:44.400Z,16.27
2023-02-23T12:35:01.652Z,22.02
2023-02-23T12:36:06.369Z,16.38
2023-02-23T12:37:40.739Z,22.70
2023-02-23T12:38:58.060Z,17.33
2023-02-23T12:40:28.365Z,14.73
2023-02-23T12:41:43.854Z,15.77
2023-02-23T12:42:58.497Z,15.23
2023-02-23T12:44:13.400Z,14.50
2023-02-23T12:45:28.640Z,14.35
2023-02-23T12:46:43.718Z,16.73
2023-02-23T12:48:12.338Z,13.60
2023-02-23T12:49:27.291Z,12.95
2023-02-23T12:50:37.746Z,15.27
2023-02-23T12:52:17.264Z,12.90
2023-02-23T12:53:37.748Z,15.75
2023-02-23T12:54:39.620Z,15.23
2023-02-23T12:56:04.891Z,16.83
2023-02-23T12:57:32.559Z,13.75
2023-02-23T12:58:48.488Z,15.07
2023-02-23T13:00:24.701Z,16.60
2023-02-23T13:01:49.709Z,14.10
2023-02-23T13:03:25.244Z,15.27
2023-02-23T13:05:03.217Z,15.35
2023-02-23T13:06:20.958Z,16.73
2023-02-23T13:07:36.743Z,13.50
2023-02-23T13:08:57.087Z,14.43
2023-02-23T13:10:22.998Z,14.30
2023-02-23T13:11:30.837Z,14.60
2023-02-23T13:12:45.753Z,14.68
2023-02-23T13:13:53.297Z,13.00
2023-02-23T13:15:18.424Z,14.73
2023-02-23T13:16:39.325Z,19.20
2023-02-23T13:19:43.938Z,17.35
2023-02-23T13:20:57.075Z,13.35
2023-02-23T13:22:36.918Z,18.83
2023-02-23T13:23:56.543Z,15.73
2023-02-23T13:25:04.943Z,21.55
2023-02-23T13:27:06.476Z,16.40
2023-02-23T13:28:19.566Z,17.05
2023-02-23T13:29:27.359Z,17.05
2023-02-23T13:30:33.902Z,16.95
2023-02-23T13:31:37.956Z,16.10
2023-02-23T13:32:40.003Z,17.60
2023-02-23T13:33:45.439Z,15.88
2023-02-23T13:35:03.787Z,16.63
2023-02-23T13:36:06.240Z,15.05
2023-02-23T13:37:10.104Z,22.15
2023-02-23T13:38:37.510Z,16.52
2023-02-23T13:40:04.792Z,15.77
2023-02-23T13:41:33.181Z,14.52
2023-02-23T13:43:03.392Z,24.15
2023-02-23T13:44:18.414Z,22.48
2023-02-23T13:45:39.921Z,17.05
2023-02-23T13:46:47.914Z,15.75
2023-02-23T13:48:27.492Z,15.57
2023-02-23T13:49:42.762Z,14.60
2023-02-23T13:51:16.460Z,21.45
2023-02-23T13:52:42.613Z,18.95
2023-02-23T13:54:13.443Z,16.63
2023-02-23T13:55:46.948Z,18.80
2023-02-23T13:57:01.894Z,15.07
2023-02-23T13:58:20.824Z,26.10
2023-02-23T13:59:25.994Z,17.42
2023-02-23T14:00:28.995Z,16.80
2023-02-23T14:01:33.404Z,24.17
2023-02-23T14:02:39.698Z,15.93
2023-02-23T14:03:48.367Z,19.00
2023-02-23T14:04:52.861Z,18.77
2023-02-23T14:05:59.562Z,18.88
2023-02-23T14:07:19.384Z,18.52
2023-02-23T14:08:28.233Z,15.98
2023-02-23T14:09:41.036Z,15.60
2023-02-23T14:10:45.575Z,23.85
2023-02-23T14:11:51.220Z,16.52
2023-02-23T14:13:13.556Z,14.63
2023-02-23T14:14:35.518Z,16.88
2023-02-23T14:15:40.579Z,13.75
2023-02-23T14:16:42.716Z,17.23
2023-02-23T14:17:58.838Z,13.70
2023-02-23T14:19:40.497Z,17.60
2023-02-23T14:20:49.589Z,14.88
2023-02-23T14:22:09.921Z,19.98
2023-02-23T14:23:19.573Z,19.42
2023-02-23T14:24:27.116Z,15.23
2023-02-23T14:25:35.039Z,16.88
2023-02-23T14:26:58.688Z,17.05
2023-02-23T14:28:06.732Z,13.77
2023-02-23T14:29:26.710Z,15.07
2023-02-23T14:30:42.835Z,15.88
2023-02-23T14:32:14.312Z,18.08
2023-02-23T14:33:59.041Z,19.65
2023-02-23T14:35:02.856Z,16.20
2023-02-23T14:36:28.784Z,18.98
2023-02-23T14:37:41.322Z,17.98
2023-02-23T14:38:48.270Z,16.75
2023-02-23T14:39:52.155Z,13.88
2023-02-23T14:41:02.162Z,14.57
2023-02-23T14:42:07.278Z,13.32
2023-02-23T14:43:44.224Z,16.50
2023-02-23T14:44:52.229Z,17.90
2023-02-23T14:46:03.491Z,19.40
2023-02-23T14:47:18.036Z,22.33
2023-02-23T14:48:22.527Z,15.85
2023-02-23T14:49:28.317Z,21.35
2023-02-23T14:50:33.625Z,13.60
2023-02-23T14:51:47.310Z,15.10
2023-02-23T14:52:52.208Z,15.90